Time;durP1;ratioP1;P1;durP2;ratioP2;P2;SDS_P1;SDS_P2;PMS_P1;PMS_P2;Temp;Humidity;BMP_temperature;BMP_pressure;BME280_temperature;BME280_humidity;BME280_pressure;Samples;Min_cycle;Max_cycle;Signal;HPM_P1;HPM_P2
2021/10/24 00:00:09;;;;;;;9.80;4.90;;;;;;;5.55;92.52;102821.81;10288433;28;20052;-72
2021/10/24 00:05:07;;;;;;;12.07;4.28;;;;;;;5.47;92.87;102814.81;10294731;28;20069;-71
2021/10/24 00:10:04;;;;;;;9.98;4.78;;;;;;;5.46;92.53;102812.34;10301846;28;20060;-72
2021/10/24 00:15:00;;;;;;;12.70;5.13;;;;;;;5.39;92.37;102811.63;10296902;28;20122;-71
2021/10/24 00:19:57;;;;;;;8.35;4.47;;;;;;;5.40;92.38;102813.28;10296971;28;20588;-71
2021/10/24 00:24:53;;;;;;;11.43;4.75;;;;;;;5.33;92.41;102820.69;10306283;28;20158;-73
2021/10/24 00:29:50;;;;;;;13.10;5.30;;;;;;;5.32;92.57;102816.34;10307570;28;20076;-72
2021/10/24 00:34:46;;;;;;;15.73;5.18;;;;;;;5.31;92.51;102809.25;10306918;28;20048;-71
2021/10/24 00:39:43;;;;;;;14.45;5.25;;;;;;;5.30;92.45;102802.16;10316131;28;20040;-73
2021/10/24 00:44:39;;;;;;;14.55;4.68;;;;;;;5.26;93.04;102805.31;10298146;28;20037;-72
2021/10/24 00:49:36;;;;;;;13.65;4.45;;;;;;;5.23;92.73;102796.84;10308818;28;20065;-72
2021/10/24 00:54:33;;;;;;;10.13;4.40;;;;;;;5.21;92.32;102798.94;10301472;28;20044;-73
2021/10/24 00:59:30;;;;;;;17.60;5.82;;;;;;;5.21;92.53;102799.78;10277321;28;20095;-72
2021/10/24 01:04:27;;;;;;;14.80;5.80;;;;;;;5.19;92.92;102801.06;10269253;28;21082;-72
2021/10/24 01:09:24;;;;;;;11.73;5.50;;;;;;;5.20;93.09;102787.28;10256802;28;20068;-72
2021/10/24 01:14:20;;;;;;;12.38;3.90;;;;;;;5.21;93.68;102793.53;10260232;28;20143;-73
2021/10/24 01:19:18;;;;;;;17.25;4.57;;;;;;;5.28;93.36;102784.22;10266205;28;20079;-72
2021/10/24 01:24:15;;;;;;;13.20;4.00;;;;;;;5.36;93.67;102779.53;10274346;28;20056;-71
2021/10/24 01:29:12;;;;;;;11.18;4.28;;;;;;;5.39;93.87;102789.94;10274467;28;20044;-71
2021/10/24 01:34:08;;;;;;;11.75;3.83;;;;;;;5.41;93.53;102782.41;10273844;28;20633;-72
2021/10/24 01:39:05;;;;;;;7.18;3.47;;;;;;;5.43;93.78;102781.09;10262812;28;20693;-71
2021/10/24 01:44:02;;;;;;;8.73;4.03;;;;;;;5.43;93.89;102777.53;10271813;28;20115;-76
2021/10/24 01:48:58;;;;;;;11.25;4.03;;;;;;;5.48;94.67;102785.81;10268446;28;20502;-73
2021/10/24 01:53:55;;;;;;;11.70;4.50;;;;;;;5.56;94.13;102779.22;10253136;28;20886;-72
2021/10/24 01:58:52;;;;;;;10.45;3.95;;;;;;;5.57;94.14;102781.72;10257428;28;20496;-72
2021/10/24 02:03:49;;;;;;;16.02;4.22;;;;;;;5.66;94.15;102774.88;10269597;28;20148;-75
2021/10/24 02:08:45;;;;;;;10.52;3.88;;;;;;;5.69;94.35;102779.00;10261886;28;20038;-71
2021/10/24 02:13:42;;;;;;;10.02;4.03;;;;;;;5.69;94.35;102776.31;10272399;28;20113;-73
2021/10/24 02:18:39;;;;;;;11.75;3.85;;;;;;;5.68;94.61;102772.72;10266666;28;20073;-72
2021/10/24 02:23:35;;;;;;;10.73;3.97;;;;;;;5.73;94.53;102773.94;10265339;28;20082;-71
2021/10/24 02:28:32;;;;;;;10.63;3.35;;;;;;;5.72;93.76;102770.38;10264985;28;20041;-71
2021/10/24 02:33:29;;;;;;;12.15;4.00;;;;;;;5.72;93.85;102777.72;10289710;28;20106;-71
2021/10/24 02:38:25;;;;;;;11.73;3.90;;;;;;;5.75;93.91;102782.66;10303160;28;20094;-71
2021/10/24 02:43:22;;;;;;;14.77;3.90;;;;;;;5.78;93.76;102765.91;10302984;28;20075;-72
2021/10/24 02:48:18;;;;;;;15.98;3.92;;;;;;;5.77;93.91;102764.25;10268049;28;20106;-71
2021/10/24 02:53:15;;;;;;;9.77;3.78;;;;;;;5.70;94.15;102775.22;10264162;28;20476;-71
2021/10/24 02:58:11;;;;;;;13.52;3.85;;;;;;;5.69;94.31;102773.59;10251357;28;20052;-72
2021/10/24 03:03:08;;;;;;;10.40;3.78;;;;;;;5.68;94.80;102761.88;10295601;28;20490;-71
2021/10/24 03:08:05;;;;;;;10.57;3.58;;;;;;;5.74;94.90;102770.16;10284596;28;20135;-72
2021/10/24 03:13:01;;;;;;;16.40;3.53;;;;;;;5.77;94.89;102766.97;10287290;28;20115;-73
2021/10/24 03:17:57;;;;;;;13.13;3.83;;;;;;;5.77;94.59;102767.78;10284307;28;20075;-71
2021/10/24 03:22:54;;;;;;;10.77;3.40;;;;;;;5.76;94.34;102757.19;10301215;28;20131;-70
2021/10/24 03:27:51;;;;;;;14.25;3.17;;;;;;;5.73;94.13;102763.06;10283003;28;20529;-71
2021/10/24 03:32:47;;;;;;;11.38;3.60;;;;;;;5.70;93.65;102765.19;10300433;28;20043;-71
2021/10/24 03:37:43;;;;;;;9.80;3.47;;;;;;;5.57;93.60;102762.72;10299756;28;20052;-73
2021/10/24 03:42:40;;;;;;;16.35;3.67;;;;;;;5.57;93.75;102760.00;10278520;28;20048;-70
2021/10/24 03:47:37;;;;;;;18.90;3.53;;;;;;;5.51;93.15;102766.34;10284538;28;20099;-72
2021/10/24 03:52:33;;;;;;;9.32;3.10;;;;;;;5.49;92.95;102757.63;10285651;28;20565;-71
2021/10/24 03:57:30;;;;;;;8.98;3.13;;;;;;;5.36;93.39;102758.66;10296262;28;20071;-71
2021/10/24 04:02:26;;;;;;;11.25;3.35;;;;;;;5.35;93.88;102761.59;10297810;28;20064;-72
2021/10/24 04:07:23;;;;;;;9.95;3.20;;;;;;;5.31;93.73;102765.84;10279267;28;20087;-72
2021/10/24 04:12:20;;;;;;;11.00;3.00;;;;;;;5.23;93.39;102761.59;10266416;28;20098;-72
2021/10/24 04:17:16;;;;;;;9.77;3.33;;;;;;;5.16;93.49;102764.38;10264025;28;20045;-72
2021/10/24 04:22:12;;;;;;;5.82;2.70;;;;;;;5.07;93.00;102755.75;10265854;28;20501;-71
2021/10/24 04:27:09;;;;;;;12.68;3.03;;;;;;;5.03;93.49;102759.16;10265129;28;20083;-73
2021/10/24 04:32:05;;;;;;;8.50;3.33;;;;;;;4.95;92.94;102754.88;10266971;28;20041;-71
2021/10/24 04:37:02;;;;;;;11.40;3.85;;;;;;;4.91;93.68;102752.88;10267144;28;20045;-73
2021/10/24 04:41:58;;;;;;;9.90;3.40;;;;;;;4.87;93.71;102754.38;10266948;28;20072;-72
2021/10/24 04:46:55;;;;;;;11.80;3.58;;;;;;;4.84;93.66;102751.06;10271008;28;20415;-74
2021/10/24 04:51:51;;;;;;;10.02;3.72;;;;;;;4.80;92.81;102741.75;10269409;28;20054;-72
2021/10/24 04:56:48;;;;;;;9.57;3.53;;;;;;;4.76;93.63;102737.84;10292932;28;20103;-72
2021/10/24 05:01:46;;;;;;;14.80;3.50;;;;;;;4.77;93.10;102739.50;10304904;28;20075;-72
2021/10/24 05:06:43;;;;;;;9.02;3.38;;;;;;;4.75;93.12;102738.06;10285224;28;20040;-73
2021/10/24 05:11:39;;;;;;;12.52;4.22;;;;;;;4.78;93.46;102741.16;10275261;28;20041;-72
2021/10/24 05:16:36;;;;;;;12.85;4.38;;;;;;;4.83;93.32;102744.00;10263608;28;20076;-71
2021/10/24 05:21:33;;;;;;;8.85;3.75;;;;;;;4.82;93.24;102739.63;10269612;28;20052;-74
2021/10/24 05:26:30;;;;;;;14.15;3.60;;;;;;;4.82;92.94;102746.94;10263894;28;20052;-71
2021/10/24 05:31:26;;;;;;;8.25;3.90;;;;;;;4.80;92.60;102733.63;10255640;28;20163;-71
2021/10/24 05:36:23;;;;;;;13.05;3.88;;;;;;;4.81;92.66;102740.69;10272951;28;20688;-73
2021/10/24 05:41:20;;;;;;;11.43;3.65;;;;;;;4.73;92.88;102732.88;10271813;28;20049;-71
2021/10/24 05:46:16;;;;;;;12.93;4.43;;;;;;;4.73;92.92;102732.88;10271010;28;20098;-71
2021/10/24 05:51:13;;;;;;;10.13;3.90;;;;;;;4.70;93.02;102732.50;10286392;28;20391;-71
2021/10/24 05:56:10;;;;;;;7.85;3.95;;;;;;;4.68;92.44;102730.00;10287282;28;20052;-71
2021/10/24 06:01:06;;;;;;;11.10;4.10;;;;;;;4.67;92.63;102733.78;10294869;28;20068;-73
2021/10/24 06:06:03;;;;;;;13.57;4.22;;;;;;;4.62;92.65;102730.94;10263481;28;20095;-75
2021/10/24 06:11:13;;;;;;;15.73;5.00;;;;;;;4.61;93.07;102726.56;10264607;28;20069;-71
2021/10/24 06:16:10;;;;;;;10.43;4.00;;;;;;;4.57;92.89;102723.50;10260149;28;20072;-73
2021/10/24 06:21:07;;;;;;;12.18;4.53;;;;;;;4.59;93.09;102720.56;10267295;28;20045;-72
2021/10/24 06:26:03;;;;;;;10.35;4.05;;;;;;;4.55;93.00;102722.06;10272400;28;20091;-72
2021/10/24 06:31:00;;;;;;;8.63;3.80;;;;;;;4.54;93.33;102717.69;10291633;28;20040;-71
2021/10/24 06:35:56;;;;;;;12.07;4.10;;;;;;;4.57;93.32;102725.38;10295021;28;20040;-71
2021/10/24 06:40:53;;;;;;;13.32;4.10;;;;;;;4.58;93.13;102718.91;10293428;28;20094;-71
2021/10/24 06:45:50;;;;;;;14.82;5.20;;;;;;;4.60;92.92;102722.22;10296230;28;20498;-70
2021/10/24 06:50:46;;;;;;;13.75;4.18;;;;;;;4.60;92.83;102716.81;10281881;28;20045;-71
2021/10/24 06:55:46;;;;;;;12.18;4.20;;;;;;;4.62;93.22;102714.69;10289066;28;20043;-72
2021/10/24 07:00:43;;;;;;;13.05;4.75;;;;;;;4.61;93.31;102713.03;10285630;28;20099;-73
2021/10/24 07:05:42;;;;;;;13.43;4.65;;;;;;;4.67;93.76;102728.38;10288210;28;20091;-73
2021/10/24 07:10:38;;;;;;;13.07;4.80;;;;;;;4.68;93.67;102724.59;10262712;28;20568;-72
2021/10/24 07:15:35;;;;;;;15.35;4.47;;;;;;;4.72;93.92;102723.09;10262991;28;20040;-71
2021/10/24 07:20:31;;;;;;;13.13;4.90;;;;;;;4.75;93.64;102719.91;10257924;28;20072;-72
2021/10/24 07:25:28;;;;;;;13.73;5.30;;;;;;;4.73;93.89;102732.88;10262370;28;20128;-71
2021/10/24 07:30:24;;;;;;;15.98;5.40;;;;;;;4.77;94.09;102728.66;10260134;28;20045;-71
2021/10/24 07:35:22;;;;;;;20.35;5.35;;;;;;;4.78;93.87;102733.03;10262050;28;20566;-73
2021/10/24 07:40:19;;;;;;;13.95;5.88;;;;;;;4.85;94.45;102722.91;10282366;28;20070;-72
2021/10/24 07:45:16;;;;;;;11.30;4.30;;;;;;;4.96;93.81;102718.56;10294506;28;20049;-73
2021/10/24 07:50:13;;;;;;;13.82;4.60;;;;;;;5.04;93.72;102717.44;10282291;28;20076;-72
2021/10/24 07:55:09;;;;;;;15.55;5.65;;;;;;;5.13;92.23;102718.75;10306422;28;20106;-71
2021/10/24 08:00:07;;;;;;;11.63;4.30;;;;;;;5.24;92.21;102720.69;10302503;28;20102;-73
2021/10/24 08:05:04;;;;;;;14.75;5.07;;;;;;;5.26;92.12;102715.81;10287712;28;20414;-74
2021/10/24 08:10:00;;;;;;;13.00;5.13;;;;;;;5.37;91.70;102705.25;10294217;28;20084;-72
2021/10/24 08:14:58;;;;;;;12.43;3.97;;;;;;;5.43;91.15;102698.84;10296343;28;20044;-72
2021/10/24 08:19:55;;;;;;;12.65;4.63;;;;;;;5.55;91.22;102696.19;10288651;28;20037;-72
2021/10/24 08:24:52;;;;;;;14.77;5.03;;;;;;;5.58;92.35;102685.66;10282081;28;20045;-70
2021/10/24 08:29:48;;;;;;;11.05;3.85;;;;;;;5.69;91.42;102684.84;10282422;28;20131;-71
2021/10/24 08:34:45;;;;;;;13.07;4.50;;;;;;;5.78;91.38;102676.31;10299860;28;20530;-76
2021/10/24 08:39:42;;;;;;;11.35;4.40;;;;;;;5.91;91.19;102673.38;10289787;28;20045;-73
2021/10/24 08:44:38;;;;;;;13.27;4.57;;;;;;;5.93;89.21;102673.94;10299636;28;20493;-71
2021/10/24 08:49:35;;;;;;;11.50;4.35;;;;;;;5.97;88.38;102675.16;10295774;28;20041;-72
2021/10/24 08:54:35;;;;;;;10.40;3.92;;;;;;;6.13;88.47;102670.03;10295220;28;20076;-74
2021/10/24 08:59:31;;;;;;;12.57;4.00;;;;;;;6.16;89.04;102666.84;10282951;28;20531;-72
2021/10/24 09:04:28;;;;;;;13.77;4.07;;;;;;;6.28;89.65;102662.22;10299596;28;20498;-71
2021/10/24 09:09:29;;;;;;;12.77;4.00;;;;;;;6.27;88.96;102664.09;10311171;28;20891;-74
2021/10/24 09:14:53;;;;;;;15.60;4.30;;;;;;;6.40;88.77;102660.28;10303525;28;20517;-72
2021/10/24 09:19:56;;;;;;;12.27;4.15;;;;;;;6.55;88.20;102656.22;10298652;28;20094;-71
2021/10/24 09:25:25;;;;;;;11.70;3.65;;;;;;;6.60;86.87;102642.72;10292542;28;20049;-72
2021/10/24 09:30:33;;;;;;;12.80;3.83;;;;;;;6.73;86.61;102642.41;10284650;28;20135;-72
2021/10/24 09:35:41;;;;;;;15.27;4.35;;;;;;;6.84;86.40;102638.78;10291646;28;20060;-72
2021/10/24 09:40:48;;;;;;;10.55;4.00;;;;;;;6.99;86.03;102640.13;10282786;28;20091;-72
2021/10/24 09:45:49;;;;;;;12.18;4.65;;;;;;;7.10;85.96;102636.50;10287289;28;20075;-72
2021/10/24 09:50:51;;;;;;;14.02;4.22;;;;;;;7.23;84.86;102630.72;10303609;28;20391;-74
2021/10/24 09:55:53;;;;;;;10.98;3.65;;;;;;;7.36;85.03;102638.56;10292248;28;20495;-75
2021/10/24 10:00:51;;;;;;;10.60;3.85;;;;;;;7.51;84.40;102631.69;10275497;28;20086;-73
2021/10/24 10:05:48;;;;;;;11.85;3.92;;;;;;;7.63;83.93;102623.41;10290911;28;20094;-72
2021/10/24 10:11:22;;;;;;;12.20;3.75;;;;;;;7.79;84.14;102620.63;10292684;28;20068;-73
2021/10/24 10:16:20;;;;;;;12.65;4.32;;;;;;;7.92;82.52;102605.81;10295401;28;20068;-71
2021/10/24 10:21:25;;;;;;;15.20;3.92;;;;;;;8.06;83.97;102605.44;10278109;28;20419;-72
2021/10/24 10:26:33;;;;;;;10.65;3.55;;;;;;;8.16;82.48;102605.56;10283711;28;20048;-73
2021/10/24 10:31:30;;;;;;;11.00;3.63;;;;;;;8.25;80.65;102593.13;10277979;28;20057;-71
2021/10/24 10:36:55;;;;;;;9.65;3.70;;;;;;;8.36;79.19;102588.59;10279529;28;20131;-71
2021/10/24 10:41:52;;;;;;;16.35;3.33;;;;;;;8.47;78.72;102584.94;10284459;28;20394;-73
2021/10/24 10:46:52;;;;;;;10.93;3.28;;;;;;;8.56;79.95;102577.94;10281609;28;20561;-72
2021/10/24 10:51:49;;;;;;;8.73;3.08;;;;;;;8.69;77.99;102575.84;10285478;28;20037;-71
2021/10/24 10:56:54;;;;;;;11.68;2.97;;;;;;;8.83;76.82;102577.06;10280419;28;20098;-74
2021/10/24 11:01:51;;;;;;;8.85;2.60;;;;;;;8.91;76.37;102560.22;10289406;28;20073;-72
2021/10/24 11:06:53;;;;;;;8.43;3.08;;;;;;;9.04;74.08;102556.22;10294280;28;20422;-73
2021/10/24 11:11:50;;;;;;;13.52;3.40;;;;;;;9.15;74.58;102565.31;10292298;28;20103;-73
2021/10/24 11:16:50;;;;;;;7.45;2.85;;;;;;;9.23;73.22;102560.16;10287623;28;21250;-73
2021/10/24 11:21:48;;;;;;;9.23;2.63;;;;;;;9.34;73.51;102549.31;10289913;28;20052;-72
2021/10/24 11:26:53;;;;;;;11.27;2.60;;;;;;;9.43;72.05;102537.59;10274135;28;20527;-72
2021/10/24 11:32:13;;;;;;;10.20;2.63;;;;;;;9.56;71.62;102538.19;10255261;28;20482;-72
2021/10/24 11:37:10;;;;;;;6.78;2.63;;;;;;;9.59;70.40;102524.03;10261581;28;20079;-72
2021/10/24 11:42:14;;;;;;;10.23;2.60;;;;;;;9.77;70.23;102520.81;10266147;28;20037;-71
2021/10/24 11:47:13;;;;;;;5.10;2.30;;;;;;;9.92;67.62;102505.56;10283612;28;20135;-71
2021/10/24 11:52:18;;;;;;;6.93;2.58;;;;;;;10.09;68.20;102508.88;10272152;28;20143;-72
2021/10/24 11:57:29;;;;;;;9.43;2.33;;;;;;;10.25;67.84;102499.59;10267759;28;20091;-72
2021/10/24 12:02:26;;;;;;;8.88;2.10;;;;;;;10.49;66.08;102485.44;10261390;28;20050;-73
2021/10/24 12:07:22;;;;;;;9.18;2.35;;;;;;;10.73;64.98;102478.28;10285178;28;20044;-73
2021/10/24 12:12:35;;;;;;;6.20;2.38;;;;;;;11.01;63.32;102461.53;10292336;28;20139;-72
2021/10/24 12:17:37;;;;;;;10.63;2.17;;;;;;;11.33;62.56;102455.69;10294272;28;20095;-72
2021/10/24 12:23:01;;;;;;;6.85;2.10;;;;;;;11.90;61.38;102457.03;10289509;28;20494;-74
2021/10/24 12:28:19;;;;;;;8.95;2.15;;;;;;;12.11;60.58;102445.91;10298581;28;20041;-71
2021/10/24 12:33:27;;;;;;;8.85;2.20;;;;;;;12.46;60.03;102441.25;10308454;28;20462;-72
2021/10/24 12:38:23;;;;;;;6.25;1.90;;;;;;;12.77;58.06;102437.09;10284368;28;20064;-75
2021/10/24 12:43:21;;;;;;;6.07;2.08;;;;;;;12.78;55.27;102437.91;10300920;28;20055;-71
2021/10/24 12:48:20;;;;;;;8.40;1.95;;;;;;;12.84;56.05;102421.09;10297644;28;20087;-72
2021/10/24 12:53:19;;;;;;;7.40;2.28;;;;;;;12.89;56.79;102411.16;10294125;28;20498;-72
2021/10/24 12:58:16;;;;;;;8.90;2.33;;;;;;;12.96;55.87;102411.63;10290812;28;20128;-72
2021/10/24 13:03:12;;;;;;;7.90;2.08;;;;;;;13.08;56.57;102405.72;10296456;28;20052;-73
2021/10/24 13:08:09;;;;;;;9.20;2.05;;;;;;;13.07;56.34;102391.19;10289220;28;20076;-72
2021/10/24 13:13:05;;;;;;;8.23;1.58;;;;;;;12.94;55.27;102383.66;10291836;28;20628;-71
2021/10/24 13:18:02;;;;;;;5.70;1.55;;;;;;;13.05;55.42;102366.75;10272478;28;20094;-73
2021/10/24 13:22:59;;;;;;;7.38;1.85;;;;;;;13.03;53.29;102373.66;10257670;28;20072;-73
2021/10/24 13:27:57;;;;;;;5.82;1.42;;;;;;;13.54;52.21;102372.97;10282678;28;20045;-73
2021/10/24 13:32:54;;;;;;;6.68;2.00;;;;;;;14.29;53.40;102360.19;10289915;28;20044;-72
2021/10/24 13:37:51;;;;;;;5.28;1.45;;;;;;;14.86;51.22;102351.72;10291887;28;20067;-73
2021/10/24 13:42:48;;;;;;;7.25;1.85;;;;;;;15.23;48.62;102345.13;10291959;28;20053;-71
2021/10/24 13:47:45;;;;;;;6.32;1.67;;;;;;;15.48;47.65;102351.16;10296381;28;20080;-72
2021/10/24 13:52:42;;;;;;;7.18;2.42;;;;;;;15.12;46.72;102332.69;10295106;28;20174;-72
2021/10/24 13:57:39;;;;;;;8.18;2.45;;;;;;;14.61;46.37;102339.28;10289706;28;20051;-71
2021/10/24 14:02:36;;;;;;;7.57;1.50;;;;;;;14.25;47.58;102326.16;10287743;28;20514;-72
2021/10/24 14:07:34;;;;;;;6.40;2.17;;;;;;;13.95;48.34;102320.09;10297399;28;20114;-71
2021/10/24 14:12:31;;;;;;;9.32;2.10;;;;;;;13.79;49.60;102313.25;10292062;28;20053;-71
2021/10/24 14:17:27;;;;;;;8.65;1.92;;;;;;;13.60;49.28;102314.09;10301468;28;20044;-72
2021/10/24 14:22:24;;;;;;;7.05;1.55;;;;;;;13.60;51.72;102305.00;10287496;28;20056;-74
2021/10/24 14:27:20;;;;;;;7.75;1.95;;;;;;;13.58;48.93;102302.56;10290722;28;20084;-72
2021/10/24 14:32:17;;;;;;;7.63;1.88;;;;;;;13.54;49.66;102300.72;10287316;28;20072;-73
2021/10/24 14:37:13;;;;;;;7.43;1.60;;;;;;;13.28;50.34;102289.31;10280911;28;20095;-73
2021/10/24 14:42:10;;;;;;;8.18;2.05;;;;;;;13.04;50.60;102281.91;10286316;28;20159;-72
2021/10/24 14:47:07;;;;;;;6.05;1.90;;;;;;;12.82;51.50;102280.56;10283345;28;20471;-72
2021/10/24 14:52:04;;;;;;;5.75;1.80;;;;;;;12.61;51.43;102273.72;10287039;28;20072;-75
2021/10/24 14:57:02;;;;;;;10.43;2.05;;;;;;;12.45;52.77;102270.34;10276763;28;20074;-73
2021/10/24 15:01:58;;;;;;;7.50;2.38;;;;;;;12.31;52.81;102262.00;10289247;28;20068;-72
2021/10/24 15:06:55;;;;;;;10.60;2.55;;;;;;;12.17;54.73;102259.13;10292357;28;20054;-72
2021/10/24 15:11:52;;;;;;;7.95;2.42;;;;;;;12.05;57.37;102245.03;10281189;28;20132;-72
2021/10/24 15:16:53;;;;;;;9.85;3.03;;;;;;;11.85;55.49;102247.94;10293705;28;20045;-73
2021/10/24 15:21:51;;;;;;;9.63;2.95;;;;;;;11.72;58.14;102246.66;10282802;28;20053;-73
2021/10/24 15:26:51;;;;;;;7.65;2.90;;;;;;;11.58;56.88;102236.41;10292324;28;20134;-71
2021/10/24 15:31:47;;;;;;;9.98;2.45;;;;;;;11.44;60.94;102238.16;10285616;28;20045;-71
2021/10/24 15:36:44;;;;;;;9.68;2.63;;;;;;;11.28;61.21;102231.16;10303975;28;20044;-75
2021/10/24 15:41:40;;;;;;;8.68;2.47;;;;;;;11.20;61.06;102223.56;10286195;28;20537;-70
2021/10/24 15:46:41;;;;;;;11.05;2.25;;;;;;;11.04;64.23;102226.41;10292037;28;20069;-75
2021/10/24 15:51:43;;;;;;;7.93;2.00;;;;;;;10.97;64.67;102214.94;10276506;28;20072;-71
2021/10/24 15:56:42;;;;;;;7.68;1.83;;;;;;;10.86;65.22;102221.59;10274041;28;20621;-72
2021/10/24 16:01:38;;;;;;;6.95;2.03;;;;;;;10.69;66.82;102225.50;10294519;28;20041;-71
2021/10/24 16:06:35;;;;;;;8.43;1.42;;;;;;;10.53;68.37;102215.75;10299301;28;20045;-71
2021/10/24 16:11:31;;;;;;;6.05;2.08;;;;;;;10.46;68.08;102215.25;10289177;28;20045;-71
2021/10/24 16:16:28;;;;;;;8.15;2.97;;;;;;;10.28;68.38;102209.31;10280457;28;20053;-72
2021/10/24 16:21:24;;;;;;;9.40;2.60;;;;;;;10.22;68.42;102199.44;10288942;28;20106;-71
2021/10/24 16:26:21;;;;;;;9.85;2.80;;;;;;;10.09;69.70;102194.56;10293484;28;20045;-71
2021/10/24 16:31:17;;;;;;;8.02;2.80;;;;;;;9.94;70.64;102197.38;10283550;28;20067;-72
2021/10/24 16:36:14;;;;;;;12.43;3.10;;;;;;;9.80;71.29;102192.47;10302934;28;20080;-73
2021/10/24 16:41:10;;;;;;;8.18;3.00;;;;;;;9.67;71.39;102193.03;10292250;28;20695;-72
2021/10/24 16:46:07;;;;;;;10.15;3.08;;;;;;;9.59;71.63;102196.34;10259040;28;20110;-72
2021/10/24 16:51:03;;;;;;;11.75;3.88;;;;;;;9.55;70.33;102189.78;10255683;28;20752;-72
2021/10/24 16:56:01;;;;;;;11.48;3.97;;;;;;;9.57;70.15;102199.34;10255898;28;20576;-70
2021/10/24 17:00:58;;;;;;;15.75;5.35;;;;;;;9.46;70.96;102198.50;10265800;28;20069;-71
2021/10/24 17:05:55;;;;;;;15.48;5.03;;;;;;;9.37;71.31;102182.97;10269551;28;20053;-71
2021/10/24 17:10:51;;;;;;;15.55;4.60;;;;;;;9.27;72.31;102183.78;10261902;28;20601;-70
2021/10/24 17:15:48;;;;;;;10.82;4.60;;;;;;;9.12;73.01;102170.97;10269718;28;20454;-72
2021/10/24 17:20:45;;;;;;;10.70;3.90;;;;;;;8.99;72.30;102183.22;10262384;28;20122;-74
2021/10/24 17:25:42;;;;;;;5.93;3.13;;;;;;;8.94;73.26;102169.59;10270010;28;20041;-70
2021/10/24 17:30:38;;;;;;;6.82;3.33;;;;;;;8.89;73.20;102161.41;10268376;28;20060;-75
2021/10/24 17:35:35;;;;;;;9.38;3.03;;;;;;;8.88;73.35;102165.22;10262693;28;20099;-72
2021/10/24 17:40:31;;;;;;;12.65;3.28;;;;;;;8.83;73.44;102154.28;10273933;28;20040;-71
2021/10/24 17:45:28;;;;;;;9.32;2.88;;;;;;;8.75;73.30;102150.19;10287853;28;20071;-71
2021/10/24 17:50:25;;;;;;;8.25;2.70;;;;;;;8.75;72.69;102146.63;10284001;28;22448;-72
2021/10/24 17:55:21;;;;;;;8.63;2.58;;;;;;;8.63;74.01;102142.28;10302743;28;20503;-72
2021/10/24 18:00:18;;;;;;;9.70;2.58;;;;;;;8.64;74.63;102134.91;10282015;28;20083;-71
2021/10/24 18:05:19;;;;;;;8.57;3.30;;;;;;;8.57;74.91;102126.19;10305222;28;20110;-71
2021/10/24 18:10:15;;;;;;;10.07;2.90;;;;;;;8.44;75.79;102111.13;10312191;28;20098;-71
2021/10/24 18:15:12;;;;;;;8.02;3.03;;;;;;;8.46;75.15;102103.50;10281030;28;20102;-71
2021/10/24 18:20:20;;;;;;;6.63;2.90;;;;;;;8.34;75.83;102101.00;10283719;28;20787;-71
2021/10/24 18:25:17;;;;;;;11.18;3.03;;;;;;;8.41;75.07;102100.78;10283306;28;20051;-72
2021/10/24 18:30:13;;;;;;;7.30;2.80;;;;;;;8.46;75.37;102087.16;10289960;28;20057;-72
2021/10/24 18:35:10;;;;;;;9.65;3.15;;;;;;;8.43;75.38;102088.53;10284216;28;20072;-72
2021/10/24 18:40:07;;;;;;;8.07;3.22;;;;;;;8.46;75.20;102076.25;10280529;28;20041;-72
2021/10/24 18:45:04;;;;;;;6.82;3.13;;;;;;;8.45;75.34;102071.91;10286806;28;20044;-72
2021/10/24 18:50:01;;;;;;;7.25;2.85;;;;;;;8.43;74.69;102065.91;10292705;28;20087;-72
2021/10/24 18:54:57;;;;;;;12.18;3.25;;;;;;;8.40;74.78;102047.34;10283944;28;20144;-72
2021/10/24 18:59:55;;;;;;;10.70;2.75;;;;;;;8.34;74.45;102041.06;10280692;28;20045;-72
2021/10/24 19:04:52;;;;;;;10.05;4.13;;;;;;;8.33;74.24;102039.44;10284048;28;20063;-72
2021/10/24 19:09:49;;;;;;;9.23;2.90;;;;;;;8.30;74.16;102047.31;10282837;28;20044;-72
2021/10/24 19:14:46;;;;;;;10.45;2.92;;;;;;;8.29;74.76;102037.50;10283214;28;20044;-73
2021/10/24 19:19:42;;;;;;;10.50;3.10;;;;;;;8.24;73.85;102030.16;10286380;28;20674;-73
2021/10/24 19:24:39;;;;;;;9.02;2.72;;;;;;;8.22;73.54;102022.22;10275476;28;20071;-72
2021/10/24 19:29:36;;;;;;;6.50;2.90;;;;;;;8.21;74.21;102017.03;10269572;28;20502;-72
2021/10/24 19:34:32;;;;;;;10.20;2.83;;;;;;;8.16;74.53;102012.41;10268612;28;20041;-72
2021/10/24 19:39:28;;;;;;;11.65;3.97;;;;;;;8.13;74.19;102007.50;10262770;28;20041;-72
2021/10/24 19:44:25;;;;;;;11.32;3.08;;;;;;;8.07;74.27;102008.56;10250631;28;20044;-73
2021/10/24 19:49:21;;;;;;;8.65;3.10;;;;;;;8.02;74.82;101994.94;10264413;28;20139;-72
2021/10/24 19:54:18;;;;;;;9.88;3.40;;;;;;;8.01;74.56;101998.78;10257620;28;20058;-72
2021/10/24 19:59:15;;;;;;;8.65;3.05;;;;;;;7.97;74.86;102003.13;10269579;28;20103;-69
2021/10/24 20:04:12;;;;;;;13.02;3.67;;;;;;;7.92;74.99;101994.94;10274568;28;20103;-70
2021/10/24 20:09:08;;;;;;;8.82;3.22;;;;;;;7.87;75.77;101986.75;10281436;28;20502;-69
2021/10/24 20:14:05;;;;;;;12.27;3.80;;;;;;;7.84;75.48;101992.72;10283089;28;20518;-69
2021/10/24 20:19:02;;;;;;;13.00;3.50;;;;;;;7.74;75.48;101990.78;10281566;28;20041;-70
2021/10/24 20:24:01;;;;;;;10.20;3.30;;;;;;;7.68;75.81;101981.81;10284652;28;20041;-69
2021/10/24 20:29:00;;;;;;;6.93;2.58;;;;;;;7.63;76.16;101987.22;10286273;28;20131;-70
2021/10/24 20:33:57;;;;;;;10.90;3.50;;;;;;;7.51;76.88;101994.78;10284328;28;20405;-69
2021/10/24 20:38:54;;;;;;;7.43;3.05;;;;;;;7.51;76.91;102000.22;10283932;28;20109;-70
2021/10/24 20:43:51;;;;;;;8.85;3.17;;;;;;;7.47;76.86;101994.53;10287331;28;20041;-69
2021/10/24 20:48:47;;;;;;;12.00;3.70;;;;;;;7.43;77.01;101995.31;10291182;28;20044;-70
2021/10/24 20:53:48;;;;;;;7.65;3.20;;;;;;;7.35;77.04;101981.09;10294347;28;20077;-69
2021/10/24 20:58:44;;;;;;;9.13;3.38;;;;;;;7.29;77.21;101987.63;10287842;28;20037;-69
2021/10/24 21:03:42;;;;;;;9.45;3.28;;;;;;;7.24;77.46;101979.44;10292258;28;20507;-68
2021/10/24 21:08:39;;;;;;;7.13;3.38;;;;;;;7.20;77.74;101978.31;10287840;28;20045;-70
2021/10/24 21:13:35;;;;;;;10.88;2.90;;;;;;;7.14;77.87;101987.53;10301629;28;20044;-69
2021/10/24 21:18:33;;;;;;;8.50;3.55;;;;;;;7.09;77.90;101982.06;10286176;28;20658;-70
2021/10/24 21:23:29;;;;;;;10.07;2.90;;;;;;;7.04;78.67;101977.41;10284668;28;20072;-71
2021/10/24 21:28:26;;;;;;;7.40;3.00;;;;;;;7.01;78.10;101979.84;10292285;28;20145;-69
2021/10/24 21:33:22;;;;;;;8.20;3.38;;;;;;;6.99;78.30;101982.03;10283833;28;20529;-69
2021/10/24 21:38:20;;;;;;;8.15;3.63;;;;;;;6.91;78.81;101975.97;10293308;28;20052;-70
2021/10/24 21:43:16;;;;;;;6.60;3.33;;;;;;;6.92;78.45;101960.50;10290713;28;20136;-70
2021/10/24 21:48:13;;;;;;;10.43;2.97;;;;;;;6.86;78.05;101956.91;10286950;28;20503;-70
2021/10/24 21:53:09;;;;;;;8.57;3.08;;;;;;;6.79;78.73;101956.31;10291521;28;20503;-69
2021/10/24 21:58:05;;;;;;;10.02;3.83;;;;;;;6.77;78.77;101958.47;10298194;28;20114;-69
2021/10/24 22:03:02;;;;;;;12.05;3.60;;;;;;;6.74;79.05;101954.38;10291974;28;20102;-70
2021/10/24 22:08:02;;;;;;;10.73;3.58;;;;;;;6.71;79.18;101959.56;10287019;28;20702;-69
2021/10/24 22:13:19;;;;;;;14.68;3.83;;;;;;;6.66;79.08;101957.63;10287380;28;20719;-70
2021/10/24 22:18:16;;;;;;;9.05;4.20;;;;;;;6.67;78.71;101958.44;10280196;28;20080;-69
2021/10/24 22:23:12;;;;;;;12.98;4.20;;;;;;;6.60;79.17;101955.13;10292560;28;20513;-70
2021/10/24 22:28:09;;;;;;;14.35;4.22;;;;;;;6.55;79.64;101949.66;10293826;28;20052;-70
2021/10/24 22:33:05;;;;;;;10.88;4.47;;;;;;;6.50;80.03;101953.97;10296674;28;20534;-69
2021/10/24 22:38:02;;;;;;;9.65;3.75;;;;;;;6.52;79.84;101951.81;10290738;28;20076;-69
2021/10/24 22:42:59;;;;;;;9.60;3.78;;;;;;;6.48;80.00;101950.69;10293041;28;20045;-70
2021/10/24 22:47:55;;;;;;;8.43;3.70;;;;;;;6.44;80.32;101955.00;10293485;28;20102;-69
2021/10/24 22:52:51;;;;;;;9.73;3.28;;;;;;;6.42;80.37;101946.28;10285244;28;20067;-69